createdAt,value
2018-07-20T00:00:24.319Z,0.00
2018-07-20T00:01:24.300Z,0.00
2018-07-20T00:02:24.292Z,0.00
2018-07-20T00:03:24.266Z,0.00
2018-07-20T00:04:24.250Z,0.00
2018-07-20T00:05:24.235Z,0.00
2018-07-20T00:06:24.220Z,0.00
2018-07-20T00:07:24.210Z,0.00
2018-07-20T00:08:24.184Z,0.00
2018-07-20T00:09:24.168Z,0.00
2018-07-20T00:10:24.151Z,0.00
2018-07-20T00:11:24.136Z,0.00
2018-07-20T00:12:24.135Z,0.00
2018-07-20T00:13:24.101Z,0.00
2018-07-20T00:14:24.085Z,0.00
2018-07-20T00:15:24.069Z,0.00
2018-07-20T00:16:24.052Z,0.00
2018-07-20T00:17:24.047Z,0.00
2018-07-20T00:18:24.019Z,0.00
2018-07-20T00:19:24.007Z,0.00
2018-07-20T00:20:23.986Z,0.00
2018-07-20T00:21:23.971Z,0.00
2018-07-20T00:22:23.962Z,0.00
2018-07-20T00:23:23.938Z,0.00
2018-07-20T00:24:23.919Z,0.00
2018-07-20T00:25:23.902Z,0.00
2018-07-20T00:26:23.886Z,0.00
2018-07-20T00:27:23.879Z,0.00
2018-07-20T00:28:23.852Z,0.00
2018-07-20T00:29:23.836Z,0.00
2018-07-20T00:30:23.868Z,0.00
2018-07-20T00:31:23.802Z,0.00
2018-07-20T00:32:23.795Z,0.00
2018-07-20T00:33:23.768Z,0.00
2018-07-20T00:34:23.750Z,0.00
2018-07-20T00:35:23.735Z,0.00
2018-07-20T00:36:23.719Z,0.00
2018-07-20T00:37:23.715Z,0.00
2018-07-20T00:38:23.686Z,0.00
2018-07-20T00:39:23.671Z,0.00
2018-07-20T00:40:23.650Z,0.00
2018-07-20T00:41:23.635Z,0.00
2018-07-20T00:42:23.629Z,0.00
2018-07-20T00:43:23.601Z,0.00
2018-07-20T00:44:23.584Z,0.00
2018-07-20T00:45:23.567Z,0.00
2018-07-20T00:46:23.550Z,0.00
2018-07-20T00:47:23.546Z,0.00
2018-07-20T00:48:23.516Z,0.00
2018-07-20T00:49:23.502Z,0.00
2018-07-20T00:50:23.482Z,0.00
2018-07-20T00:51:23.466Z,0.00
2018-07-20T00:52:23.459Z,0.00
2018-07-20T00:53:23.433Z,0.00
2018-07-20T00:54:23.414Z,0.00
2018-07-20T00:55:23.399Z,0.00
2018-07-20T00:56:23.382Z,0.00
2018-07-20T00:57:23.375Z,0.00
2018-07-20T00:58:23.347Z,0.00
2018-07-20T00:59:23.331Z,0.00
2018-07-20T01:00:23.313Z,0.00
2018-07-20T01:01:23.305Z,0.00
2018-07-20T01:02:23.288Z,0.00
2018-07-20T01:03:23.262Z,0.00
2018-07-20T01:04:23.245Z,0.00
2018-07-20T01:05:23.247Z,0.00
2018-07-20T01:06:23.211Z,0.00
2018-07-20T01:07:23.206Z,0.00
2018-07-20T01:08:23.171Z,0.00
2018-07-20T01:09:23.165Z,0.00
2018-07-20T01:10:23.144Z,0.00
2018-07-20T01:11:23.132Z,0.00
2018-07-20T01:12:23.120Z,0.00
2018-07-20T01:13:23.092Z,0.00
2018-07-20T01:14:23.076Z,0.00
2018-07-20T01:15:23.057Z,0.00
2018-07-20T01:16:23.041Z,0.00
2018-07-20T01:17:23.035Z,0.00
2018-07-20T01:18:23.008Z,0.00
2018-07-20T01:19:22.990Z,0.00
2018-07-20T01:20:22.972Z,0.00
2018-07-20T01:21:22.956Z,0.00
2018-07-20T01:22:22.949Z,0.00
2018-07-20T01:23:22.920Z,0.00
2018-07-20T01:24:22.903Z,0.00
2018-07-20T01:25:22.887Z,0.00
2018-07-20T01:26:22.868Z,0.00
2018-07-20T01:27:22.862Z,0.00
2018-07-20T01:28:22.836Z,0.00
2018-07-20T01:29:22.816Z,0.00
2018-07-20T01:30:22.800Z,0.00
2018-07-20T01:31:22.783Z,0.00
2018-07-20T01:32:22.780Z,0.00
2018-07-20T01:33:22.748Z,0.00
2018-07-20T01:34:22.730Z,0.00
2018-07-20T01:35:22.716Z,0.00
2018-07-20T01:36:22.697Z,0.00
2018-07-20T01:37:22.689Z,0.00
2018-07-20T01:38:22.662Z,0.00
2018-07-20T01:39:22.645Z,0.00
2018-07-20T01:40:22.628Z,0.00
2018-07-20T01:41:22.611Z,0.00
2018-07-20T01:42:22.606Z,0.00
2018-07-20T01:43:22.576Z,0.00
2018-07-20T01:44:22.558Z,0.00
2018-07-20T01:45:22.542Z,0.00
2018-07-20T01:46:22.523Z,0.00
2018-07-20T01:47:22.517Z,0.00
2018-07-20T01:48:22.489Z,0.00
2018-07-20T01:49:22.478Z,0.00
2018-07-20T01:50:22.455Z,0.00
2018-07-20T01:51:22.438Z,0.00
2018-07-20T01:52:22.432Z,0.00
2018-07-20T01:53:22.404Z,0.00
2018-07-20T01:54:22.385Z,0.00
2018-07-20T01:55:22.367Z,0.00
2018-07-20T01:56:22.352Z,0.00
2018-07-20T01:57:22.344Z,0.00
2018-07-20T01:58:22.316Z,0.00
2018-07-20T01:59:22.300Z,0.00
2018-07-20T02:00:22.281Z,0.00
2018-07-20T02:01:22.263Z,0.00
2018-07-20T02:02:22.259Z,0.00
2018-07-20T02:03:22.229Z,0.00
2018-07-20T02:04:22.212Z,0.00
2018-07-20T02:05:22.195Z,0.00
2018-07-20T02:06:22.175Z,0.00
2018-07-20T02:07:22.169Z,0.00
2018-07-20T02:08:22.148Z,0.00
2018-07-20T02:09:22.125Z,0.00
2018-07-20T02:10:22.105Z,0.00
2018-07-20T02:11:22.089Z,0.00
2018-07-20T02:12:22.082Z,0.00
2018-07-20T02:13:22.053Z,0.00
2018-07-20T02:14:22.037Z,0.00
2018-07-20T02:15:22.020Z,0.00
2018-07-20T02:16:22.002Z,0.00
2018-07-20T02:17:21.997Z,0.00
2018-07-20T02:18:21.968Z,0.00
2018-07-20T02:19:21.950Z,0.00
2018-07-20T02:20:21.933Z,0.00
2018-07-20T02:21:21.916Z,0.00
2018-07-20T02:22:21.909Z,0.00
2018-07-20T02:23:21.882Z,0.00
2018-07-20T02:24:21.864Z,0.00
2018-07-20T02:25:21.845Z,0.00
2018-07-20T02:26:21.827Z,0.00
2018-07-20T02:27:21.820Z,0.00
2018-07-20T02:28:21.792Z,0.00
2018-07-20T02:29:21.791Z,0.00
2018-07-20T02:30:21.757Z,0.00
2018-07-20T02:31:21.739Z,0.00
2018-07-20T02:32:21.732Z,0.00
2018-07-20T02:33:21.705Z,0.00
2018-07-20T02:34:21.688Z,0.00
2018-07-20T02:35:21.671Z,0.00
2018-07-20T02:36:21.650Z,0.00
2018-07-20T02:37:21.646Z,0.00
2018-07-20T02:38:21.625Z,0.00
2018-07-20T02:39:21.599Z,0.00
2018-07-20T02:40:21.583Z,0.00
2018-07-20T02:41:21.569Z,0.00
2018-07-20T02:42:21.559Z,0.00
2018-07-20T02:43:21.528Z,0.00
2018-07-20T02:44:21.511Z,0.00
2018-07-20T02:45:21.493Z,0.00
2018-07-20T02:46:21.480Z,0.00
2018-07-20T02:47:21.467Z,0.00
2018-07-20T02:48:21.440Z,0.00
2018-07-20T02:49:21.422Z,0.00
2018-07-20T02:50:21.403Z,0.00
2018-07-20T02:51:21.387Z,0.00
2018-07-20T02:52:21.384Z,0.00
2018-07-20T02:53:21.352Z,0.00
2018-07-20T02:54:21.334Z,0.00
2018-07-20T02:55:21.316Z,0.00
2018-07-20T02:56:21.298Z,0.00
2018-07-20T02:57:21.291Z,0.00
2018-07-20T02:58:21.262Z,0.00
2018-07-20T02:59:21.244Z,4.00
2018-07-20T03:00:21.227Z,4.00
2018-07-20T03:01:21.211Z,0.00
2018-07-20T03:02:21.202Z,0.00
2018-07-20T03:03:21.173Z,4.00
2018-07-20T03:04:21.155Z,4.00
2018-07-20T03:05:21.138Z,4.00
2018-07-20T03:06:21.121Z,4.00
2018-07-20T03:07:21.114Z,4.00
2018-07-20T03:08:21.083Z,8.00
2018-07-20T03:09:21.071Z,4.00
2018-07-20T03:10:21.053Z,8.00
2018-07-20T03:11:21.033Z,8.00
2018-07-20T03:12:21.028Z,12.00
2018-07-20T03:13:20.995Z,12.00
2018-07-20T03:14:20.985Z,12.00
2018-07-20T03:15:20.960Z,12.00
2018-07-20T03:16:20.942Z,16.00
2018-07-20T03:17:20.926Z,20.00
2018-07-20T03:18:20.918Z,20.00
2018-07-20T03:19:20.888Z,24.00
2018-07-20T03:20:20.871Z,28.00
2018-07-20T03:21:20.854Z,32.00
2018-07-20T03:22:20.835Z,36.00
2018-07-20T03:23:20.827Z,40.00
2018-07-20T03:24:20.801Z,48.00
2018-07-20T03:25:20.782Z,52.00
2018-07-20T03:26:20.766Z,60.00
2018-07-20T03:27:20.759Z,68.00
2018-07-20T03:28:20.729Z,76.00
2018-07-20T03:29:20.711Z,84.00
2018-07-20T03:30:20.696Z,92.00
2018-07-20T03:31:20.674Z,104.00
2018-07-20T03:32:20.667Z,112.00
2018-07-20T03:33:20.638Z,124.00
2018-07-20T03:34:20.622Z,136.00
2018-07-20T03:35:20.603Z,148.00
2018-07-20T03:36:20.585Z,164.00
2018-07-20T03:37:20.578Z,176.00
2018-07-20T03:38:20.549Z,188.00
2018-07-20T03:39:20.530Z,200.00
2018-07-20T03:40:20.513Z,220.00
2018-07-20T03:41:20.495Z,228.00
2018-07-20T03:42:20.491Z,244.00
2018-07-20T03:43:20.461Z,260.00
2018-07-20T03:44:20.442Z,276.00
2018-07-20T03:45:20.424Z,292.00
2018-07-20T03:46:20.405Z,312.00
2018-07-20T03:47:20.401Z,332.00
2018-07-20T03:48:20.371Z,352.00
2018-07-20T03:49:20.352Z,376.00
2018-07-20T03:50:20.333Z,400.00
2018-07-20T03:51:20.317Z,420.00
2018-07-20T03:52:20.309Z,448.00
2018-07-20T03:53:20.281Z,472.00
2018-07-20T03:54:20.263Z,500.00
2018-07-20T03:55:20.244Z,528.00
2018-07-20T03:56:20.226Z,556.00
2018-07-20T03:57:20.220Z,584.00
2018-07-20T03:58:20.191Z,608.00
2018-07-20T03:59:20.174Z,640.00
2018-07-20T04:00:20.156Z,672.00
2018-07-20T04:01:20.139Z,704.00
2018-07-20T04:02:20.167Z,732.00
2018-07-20T04:03:20.102Z,764.00
2018-07-20T04:04:20.084Z,800.00
2018-07-20T04:05:20.071Z,832.00
2018-07-20T04:06:20.047Z,868.00
2018-07-20T04:07:20.039Z,912.00
2018-07-20T04:08:20.015Z,956.00
2018-07-20T04:09:19.996Z,996.00
2018-07-20T04:10:19.997Z,1040.00
2018-07-20T04:11:19.959Z,1084.00
2018-07-20T04:12:19.952Z,1124.00
2018-07-20T04:13:19.922Z,1156.00
2018-07-20T04:14:19.906Z,1176.00
2018-07-20T04:15:19.887Z,1196.00
2018-07-20T04:16:19.867Z,1220.00
2018-07-20T04:17:19.863Z,1252.00
2018-07-20T04:18:19.837Z,1292.00
2018-07-20T04:19:19.816Z,1336.00
2018-07-20T04:20:19.798Z,1380.00
2018-07-20T04:21:19.780Z,1432.00
2018-07-20T04:22:19.785Z,1476.00
2018-07-20T04:23:19.743Z,1520.00
2018-07-20T04:24:19.725Z,1560.00
2018-07-20T04:25:19.706Z,1592.00
2018-07-20T04:26:19.689Z,1624.00
2018-07-20T04:27:19.682Z,1648.00
2018-07-20T04:28:19.653Z,1684.00
2018-07-20T04:29:19.635Z,1712.00
2018-07-20T04:30:19.617Z,1736.00
2018-07-20T04:31:19.602Z,1752.00
2018-07-20T04:32:19.593Z,1772.00
2018-07-20T04:33:19.564Z,1796.00
2018-07-20T04:34:19.546Z,1820.00
2018-07-20T04:35:19.529Z,1852.00
2018-07-20T04:36:19.519Z,1892.00
2018-07-20T04:37:19.505Z,1928.00
2018-07-20T04:38:19.474Z,1964.00
2018-07-20T04:39:19.460Z,1988.00
2018-07-20T04:40:19.441Z,2008.00
2018-07-20T04:41:19.423Z,2028.00
2018-07-20T04:42:19.415Z,2052.00
2018-07-20T04:43:19.388Z,2076.00
2018-07-20T04:44:19.370Z,2100.00
2018-07-20T04:45:19.351Z,2132.00
2018-07-20T04:46:19.333Z,2168.00
2018-07-20T04:47:19.350Z,2208.00
2018-07-20T04:48:19.297Z,2256.00
2018-07-20T04:49:19.281Z,2308.00
2018-07-20T04:50:19.263Z,2360.00
2018-07-20T04:51:19.245Z,2408.00
2018-07-20T04:52:19.230Z,2452.00
2018-07-20T04:53:19.219Z,2488.00
2018-07-20T04:54:19.194Z,2516.00
2018-07-20T04:55:19.180Z,2544.00
2018-07-20T04:56:19.156Z,2564.00
2018-07-20T04:57:19.148Z,2596.00
2018-07-20T04:58:19.121Z,2636.00
2018-07-20T04:59:19.104Z,2676.00
2018-07-20T05:00:19.087Z,2716.00
2018-07-20T05:01:19.069Z,2724.00
2018-07-20T05:02:19.119Z,2732.00
2018-07-20T05:03:19.035Z,2740.00
2018-07-20T05:04:19.015Z,2756.00
2018-07-20T05:05:18.999Z,2780.00
2018-07-20T05:06:18.980Z,2808.00
2018-07-20T05:07:18.977Z,2836.00
2018-07-20T05:08:18.946Z,2864.00
2018-07-20T05:09:18.928Z,2892.00
2018-07-20T05:10:18.910Z,2920.00
2018-07-20T05:11:18.947Z,2948.00
2018-07-20T05:12:18.876Z,2976.00
2018-07-20T05:13:18.867Z,3008.00
2018-07-20T05:14:18.838Z,3048.00
2018-07-20T05:15:18.822Z,3088.00
2018-07-20T05:16:18.809Z,3136.00
2018-07-20T05:17:18.788Z,3180.00
2018-07-20T05:18:18.786Z,3232.00
2018-07-20T05:19:18.751Z,3272.00
2018-07-20T05:20:18.738Z,3320.00
2018-07-20T05:21:18.717Z,3372.00
2018-07-20T05:22:18.699Z,3424.00
2018-07-20T05:23:18.683Z,3484.00
2018-07-20T05:24:18.679Z,3532.00
2018-07-20T05:25:18.650Z,3584.00
2018-07-20T05:26:18.631Z,3636.00
2018-07-20T05:27:18.617Z,3688.00
2018-07-20T05:28:18.596Z,3744.00
2018-07-20T05:29:18.590Z,3788.00
2018-07-20T05:30:18.562Z,3840.00
2018-07-20T05:31:18.546Z,3888.00
2018-07-20T05:32:18.528Z,3932.00
2018-07-20T05:33:18.513Z,3964.00
2018-07-20T05:34:18.503Z,3988.00
2018-07-20T05:35:18.476Z,4008.00
2018-07-20T05:36:18.458Z,4016.00
2018-07-20T05:37:18.441Z,4028.00
2018-07-20T05:38:18.423Z,4024.00
2018-07-20T05:39:18.425Z,4040.00
2018-07-20T05:40:18.395Z,4048.00
2018-07-20T05:41:18.374Z,4060.00
2018-07-20T05:42:18.355Z,4072.00
2018-07-20T05:43:18.345Z,4080.00
2018-07-20T05:44:18.322Z,4092.00
2018-07-20T05:45:18.315Z,4100.00
2018-07-20T05:46:18.288Z,4112.00
2018-07-20T05:47:18.271Z,4124.00
2018-07-20T05:48:18.254Z,4140.00
2018-07-20T05:49:18.246Z,4160.00
2018-07-20T05:50:18.232Z,4184.00
2018-07-20T05:51:18.202Z,4212.00
2018-07-20T05:52:18.186Z,4232.00
2018-07-20T05:53:18.196Z,4244.00
2018-07-20T05:54:18.152Z,4236.00
2018-07-20T05:55:18.145Z,4252.00
2018-07-20T05:56:18.118Z,4252.00
2018-07-20T05:57:18.101Z,4248.00
2018-07-20T05:58:18.086Z,4248.00
2018-07-20T05:59:18.066Z,4268.00
2018-07-20T06:00:18.061Z,4288.00
2018-07-20T06:01:18.035Z,4312.00
2018-07-20T06:02:18.016Z,4344.00
2018-07-20T06:03:18.004Z,4388.00
2018-07-20T06:04:17.987Z,4404.00
2018-07-20T06:05:17.977Z,4432.00
2018-07-20T06:06:17.948Z,4464.00
2018-07-20T06:07:17.932Z,4496.00
2018-07-20T06:08:17.915Z,4540.00
2018-07-20T06:09:17.900Z,4592.00
2018-07-20T06:10:17.893Z,4628.00
2018-07-20T06:11:17.865Z,4680.00
2018-07-20T06:12:17.850Z,4736.00
2018-07-20T06:13:17.833Z,4804.00
2018-07-20T06:14:17.908Z,4872.00
2018-07-20T06:15:17.833Z,4940.00
2018-07-20T06:16:17.781Z,5012.00
2018-07-20T06:17:17.766Z,5084.00
2018-07-20T06:18:17.748Z,5172.00
2018-07-20T06:19:17.732Z,5260.00
2018-07-20T06:20:17.715Z,5332.00
2018-07-20T06:21:17.712Z,5408.00
2018-07-20T06:22:17.683Z,5488.00
2018-07-20T06:23:17.666Z,5584.00
2018-07-20T06:24:17.656Z,5676.00
2018-07-20T06:25:17.633Z,5760.00
2018-07-20T06:26:17.625Z,5844.00
2018-07-20T06:27:17.600Z,5908.00
2018-07-20T06:28:17.584Z,5984.00
2018-07-20T06:29:17.567Z,6052.00
2018-07-20T06:30:17.551Z,6144.00
2018-07-20T06:31:17.568Z,6248.00
2018-07-20T06:32:17.519Z,6332.00
2018-07-20T06:33:17.503Z,6396.00
2018-07-20T06:34:17.498Z,6492.00
2018-07-20T06:35:17.481Z,6568.00
2018-07-20T06:36:17.458Z,6652.00
2018-07-20T06:37:17.457Z,6716.00
2018-07-20T06:38:17.434Z,6788.00
2018-07-20T06:39:17.406Z,6840.00
2018-07-20T06:40:17.399Z,6900.00
2018-07-20T06:41:17.375Z,6936.00
2018-07-20T06:42:17.372Z,6968.00
2018-07-20T06:43:17.344Z,6976.00
2018-07-20T06:44:17.325Z,7012.00
2018-07-20T06:45:17.311Z,7044.00
2018-07-20T06:46:17.294Z,7088.00
2018-07-20T06:47:17.289Z,7152.00
2018-07-20T06:48:17.261Z,7196.00
2018-07-20T06:49:17.246Z,7216.00
2018-07-20T06:50:17.230Z,7204.00
2018-07-20T06:51:17.214Z,7232.00
2018-07-20T06:52:17.208Z,7236.00
2018-07-20T06:53:17.185Z,7268.00
2018-07-20T06:54:17.168Z,7304.00
2018-07-20T06:55:17.158Z,7360.00
2018-07-20T06:56:17.136Z,7400.00
2018-07-20T06:57:17.187Z,7432.00
2018-07-20T06:58:17.253Z,7452.00
2018-07-20T06:59:17.091Z,7500.00
2018-07-20T07:00:17.086Z,7532.00
2018-07-20T07:01:17.059Z,7580.00
2018-07-20T07:02:17.043Z,7608.00
2018-07-20T07:03:17.038Z,7640.00
2018-07-20T07:04:17.013Z,7672.00
2018-07-20T07:05:16.998Z,7720.00
2018-07-20T07:06:16.983Z,7788.00
2018-07-20T07:07:16.965Z,7844.00
2018-07-20T07:08:16.961Z,7856.00
2018-07-20T07:09:16.977Z,7884.00
2018-07-20T07:10:16.934Z,7912.00
2018-07-20T07:11:16.906Z,7944.00
2018-07-20T07:12:16.891Z,7980.00
2018-07-20T07:13:16.889Z,8012.00
2018-07-20T07:14:16.861Z,8064.00
2018-07-20T07:15:16.890Z,8084.00
2018-07-20T07:16:16.832Z,8140.00
2018-07-20T07:17:16.817Z,8212.00
2018-07-20T07:18:16.814Z,8296.00
2018-07-20T07:19:16.786Z,8356.00
2018-07-20T07:20:16.773Z,8420.00
2018-07-20T07:21:16.757Z,8504.00
2018-07-20T07:22:16.802Z,8620.00
2018-07-20T07:23:16.739Z,8752.00
2018-07-20T07:24:16.717Z,8876.00
2018-07-20T07:25:16.699Z,9032.00
2018-07-20T07:26:16.686Z,9164.00
2018-07-20T07:27:16.669Z,9308.00
2018-07-20T07:28:16.670Z,9440.00
2018-07-20T07:29:16.649Z,9580.00
2018-07-20T07:30:16.624Z,9696.00
2018-07-20T07:31:16.612Z,9792.00
2018-07-20T07:32:16.597Z,9896.00
2018-07-20T07:33:16.583Z,9988.00
2018-07-20T07:34:16.576Z,10060.00
2018-07-20T07:35:16.557Z,10156.00
2018-07-20T07:36:16.544Z,10228.00
2018-07-20T07:37:16.530Z,10300.00
2018-07-20T07:38:16.511Z,10360.00
2018-07-20T07:39:16.507Z,10408.00
2018-07-20T07:40:16.483Z,10484.00
2018-07-20T07:41:16.470Z,10484.00
2018-07-20T07:42:16.515Z,10492.00
2018-07-20T07:43:16.442Z,10496.00
2018-07-20T07:44:16.438Z,10516.00
2018-07-20T07:45:16.415Z,10544.00
2018-07-20T07:46:16.405Z,10556.00
2018-07-20T07:47:16.390Z,10564.00
2018-07-20T07:48:16.374Z,10560.00
2018-07-20T07:49:16.378Z,10552.00
2018-07-20T07:50:16.347Z,10560.00
2018-07-20T07:51:16.334Z,10588.00
2018-07-20T07:52:16.320Z,10604.00
2018-07-20T07:53:16.308Z,10628.00
2018-07-20T07:54:16.304Z,10628.00
2018-07-20T07:55:16.280Z,10608.00
2018-07-20T07:56:16.268Z,10612.00
2018-07-20T07:57:16.254Z,10616.00
2018-07-20T07:58:16.242Z,10604.00
2018-07-20T07:59:16.240Z,10624.00
2018-07-20T08:00:16.214Z,10628.00
2018-07-20T08:01:16.200Z,10672.00
2018-07-20T08:02:16.185Z,10616.00
2018-07-20T08:03:16.211Z,10596.00
2018-07-20T08:04:16.165Z,10516.00
2018-07-20T08:05:16.166Z,10492.00
2018-07-20T08:06:16.134Z,10460.00
2018-07-20T08:07:16.121Z,10440.00
2018-07-20T08:08:16.109Z,10408.00
2018-07-20T08:09:16.096Z,10368.00
2018-07-20T08:10:16.105Z,10312.00
2018-07-20T08:11:16.070Z,10240.00
2018-07-20T08:12:16.057Z,10156.00
2018-07-20T08:13:16.047Z,10060.00
2018-07-20T08:14:16.031Z,10024.00
2018-07-20T08:15:16.028Z,9936.00
2018-07-20T08:16:16.025Z,9904.00
2018-07-20T08:17:15.993Z,9896.00
2018-07-20T08:18:15.979Z,9956.00
2018-07-20T08:19:15.967Z,10044.00
2018-07-20T08:20:15.971Z,10172.00
2018-07-20T08:21:15.944Z,10284.00
2018-07-20T08:22:15.930Z,10260.00
2018-07-20T08:23:15.916Z,10220.00
2018-07-20T08:24:15.906Z,10164.00
2018-07-20T08:25:15.890Z,10056.00
2018-07-20T08:26:15.888Z,9888.00
2018-07-20T08:27:15.866Z,9680.00
2018-07-20T08:28:15.853Z,9412.00
2018-07-20T08:29:20.145Z,9108.00
2018-07-20T08:30:15.829Z,8856.00
2018-07-20T08:31:15.830Z,8608.00
2018-07-20T08:32:15.802Z,8412.00
2018-07-20T08:33:15.789Z,8152.00
2018-07-20T08:34:15.777Z,7968.00
2018-07-20T08:35:15.765Z,7832.00
2018-07-20T08:36:15.753Z,7800.00
2018-07-20T08:37:15.750Z,7732.00
2018-07-20T08:38:15.727Z,7828.00
2018-07-20T08:39:15.715Z,7760.00
2018-07-20T08:40:15.705Z,7684.00
2018-07-20T08:41:15.750Z,7548.00
2018-07-20T08:42:15.696Z,7488.00
2018-07-20T08:43:15.666Z,7468.00
2018-07-20T08:44:15.656Z,7420.00
2018-07-20T08:45:15.640Z,7360.00
2018-07-20T08:46:15.627Z,7260.00
2018-07-20T08:47:15.625Z,7168.00
2018-07-20T08:48:15.602Z,7140.00
2018-07-20T08:49:15.591Z,7072.00
2018-07-20T08:50:15.578Z,7072.00
2018-07-20T08:51:15.571Z,7032.00
2018-07-20T08:52:15.570Z,7020.00
2018-07-20T08:53:15.540Z,7000.00
2018-07-20T08:54:15.529Z,6952.00
2018-07-20T08:55:15.516Z,6928.00
2018-07-20T08:56:15.503Z,6888.00
2018-07-20T08:57:15.492Z,6892.00
2018-07-20T08:58:15.488Z,6868.00
2018-07-20T08:59:15.468Z,6840.00
2018-07-20T09:00:15.455Z,6832.00
2018-07-20T09:01:15.443Z,6816.00
2018-07-20T09:02:15.430Z,6800.00
2018-07-20T09:03:15.428Z,6780.00
2018-07-20T09:04:15.406Z,6764.00
2018-07-20T09:05:15.392Z,6744.00
2018-07-20T09:06:15.380Z,6732.00
2018-07-20T09:07:15.367Z,6700.00
2018-07-20T09:08:15.388Z,6668.00
2018-07-20T09:09:15.344Z,6648.00
2018-07-20T09:10:15.330Z,6624.00
2018-07-20T09:11:15.319Z,6568.00
2018-07-20T09:12:15.306Z,6512.00
2018-07-20T09:13:15.300Z,6488.00
2018-07-20T09:14:15.293Z,6472.00
2018-07-20T09:15:15.272Z,6460.00
2018-07-20T09:16:15.259Z,6440.00
2018-07-20T09:17:15.247Z,6468.00
2018-07-20T09:18:15.234Z,6476.00
2018-07-20T09:19:15.232Z,6452.00
2018-07-20T09:20:15.209Z,6484.00
2018-07-20T09:21:15.200Z,6480.00
2018-07-20T09:22:15.184Z,6464.00
2018-07-20T09:23:15.172Z,6464.00
2018-07-20T09:24:15.170Z,6452.00
2018-07-20T09:25:15.148Z,6460.00
2018-07-20T09:26:15.141Z,6488.00
2018-07-20T09:27:15.124Z,6500.00
2018-07-20T09:28:15.179Z,6508.00
2018-07-20T09:29:15.111Z,6508.00
2018-07-20T09:30:15.088Z,6532.00
2018-07-20T09:31:15.074Z,6572.00
2018-07-20T09:32:15.064Z,6596.00
2018-07-20T09:33:15.052Z,6612.00
2018-07-20T09:34:15.051Z,6632.00
2018-07-20T09:35:15.032Z,6636.00
2018-07-20T09:36:15.015Z,6648.00
2018-07-20T09:37:15.003Z,6656.00
2018-07-20T09:38:14.989Z,6668.00
2018-07-20T09:39:14.990Z,6680.00
2018-07-20T09:40:14.965Z,6696.00
2018-07-20T09:41:14.954Z,6708.00
2018-07-20T09:42:14.945Z,6724.00
2018-07-20T09:43:14.930Z,6736.00
2018-07-20T09:44:14.946Z,6760.00
2018-07-20T09:45:14.907Z,6776.00
2018-07-20T09:46:14.894Z,6792.00
2018-07-20T09:47:14.895Z,6812.00
2018-07-20T09:48:14.873Z,6844.00
2018-07-20T09:49:14.870Z,6872.00
2018-07-20T09:50:14.848Z,6896.00
2018-07-20T09:51:14.837Z,6924.00
2018-07-20T09:52:14.826Z,6952.00
2018-07-20T09:53:14.815Z,6968.00
2018-07-20T09:54:14.812Z,6980.00
2018-07-20T09:55:14.792Z,6976.00
2018-07-20T09:56:14.779Z,6984.00
2018-07-20T09:57:14.768Z,6992.00
2018-07-20T09:58:14.758Z,6996.00
2018-07-20T09:59:14.778Z,6992.00
2018-07-20T10:00:14.734Z,6988.00
2018-07-20T10:01:14.721Z,6992.00
2018-07-20T10:02:14.710Z,7004.00
2018-07-20T10:03:14.700Z,7012.00
2018-07-20T10:04:14.689Z,7036.00
2018-07-20T10:05:14.687Z,7060.00
2018-07-20T10:06:14.665Z,7084.00
2018-07-20T10:07:14.653Z,7116.00
2018-07-20T10:08:14.648Z,7144.00
2018-07-20T10:09:14.632Z,7164.00
2018-07-20T10:10:14.633Z,7184.00
2018-07-20T10:11:14.608Z,7192.00
2018-07-20T10:12:14.599Z,7212.00
2018-07-20T10:13:14.587Z,7232.00
2018-07-20T10:14:14.575Z,7264.00
2018-07-20T10:15:14.563Z,7276.00
2018-07-20T10:16:14.565Z,7292.00
2018-07-20T10:17:14.544Z,7316.00
2018-07-20T10:18:14.530Z,7332.00
2018-07-20T10:19:14.524Z,7336.00
2018-07-20T10:20:14.514Z,7336.00
2018-07-20T10:21:14.513Z,7332.00
2018-07-20T10:22:14.487Z,7332.00
2018-07-20T10:23:14.476Z,7340.00
2018-07-20T10:24:14.464Z,7348.00
2018-07-20T10:25:14.457Z,7344.00
2018-07-20T10:26:14.443Z,7344.00
2018-07-20T10:27:14.441Z,7352.00
2018-07-20T10:28:14.422Z,7360.00
2018-07-20T10:29:14.414Z,7380.00
2018-07-20T10:30:14.404Z,7400.00
2018-07-20T10:31:14.389Z,7440.00
2018-07-20T10:32:14.387Z,7476.00
2018-07-20T10:33:14.369Z,7492.00
2018-07-20T10:34:14.356Z,7492.00
2018-07-20T10:35:14.346Z,7472.00
2018-07-20T10:36:14.336Z,7472.00
2018-07-20T10:37:14.340Z,7484.00
2018-07-20T10:38:14.313Z,7500.00
2018-07-20T10:39:14.303Z,7520.00
2018-07-20T10:40:14.296Z,7544.00
2018-07-20T10:41:14.284Z,7576.00
2018-07-20T10:42:14.281Z,7608.00
2018-07-20T10:43:14.284Z,7648.00
2018-07-20T10:44:14.249Z,7680.00
2018-07-20T10:45:14.239Z,7712.00
2018-07-20T10:46:14.228Z,7748.00
2018-07-20T10:47:14.228Z,7768.00
2018-07-20T10:48:14.209Z,7804.00
2018-07-20T10:49:14.200Z,7844.00
2018-07-20T10:50:14.187Z,7892.00
2018-07-20T10:51:14.177Z,7940.00
2018-07-20T10:52:14.184Z,8004.00
2018-07-20T10:53:14.156Z,8044.00
2018-07-20T10:54:14.147Z,8080.00
2018-07-20T10:55:14.136Z,8112.00
2018-07-20T10:56:14.126Z,8144.00
2018-07-20T10:57:14.116Z,8176.00
2018-07-20T10:58:14.119Z,8192.00
2018-07-20T10:59:14.096Z,8208.00
2018-07-20T11:00:14.084Z,8212.00
2018-07-20T11:01:14.075Z,8204.00
2018-07-20T11:02:14.065Z,8216.00
2018-07-20T11:03:14.072Z,8252.00
2018-07-20T11:04:14.044Z,8288.00
2018-07-20T11:05:14.036Z,8320.00
2018-07-20T11:06:14.025Z,8356.00
2018-07-20T11:07:14.015Z,8412.00
2018-07-20T11:08:14.007Z,8496.00
2018-07-20T11:09:14.007Z,8564.00
2018-07-20T11:10:13.983Z,8608.00
2018-07-20T11:11:13.983Z,8672.00
2018-07-20T11:12:13.964Z,8788.00
2018-07-20T11:13:13.954Z,8876.00
2018-07-20T11:14:13.956Z,8916.00
2018-07-20T11:15:13.934Z,8972.00
2018-07-20T11:16:13.924Z,9064.00
2018-07-20T11:17:13.915Z,9152.00
2018-07-20T11:18:13.907Z,9260.00
2018-07-20T11:19:13.897Z,9384.00
2018-07-20T11:20:13.928Z,9476.00
2018-07-20T11:21:13.894Z,9568.00
2018-07-20T11:22:13.869Z,9632.00
2018-07-20T11:23:13.858Z,9720.00
2018-07-20T11:24:13.848Z,9820.00
2018-07-20T11:25:13.849Z,9940.00
2018-07-20T11:26:13.823Z,10028.00
2018-07-20T11:27:13.820Z,10112.00
2018-07-20T11:28:13.811Z,10240.00
2018-07-20T11:29:13.797Z,10360.00
2018-07-20T11:30:13.801Z,10464.00
2018-07-20T11:31:13.780Z,10548.00
2018-07-20T11:32:13.770Z,10556.00
2018-07-20T11:33:13.761Z,10616.00
2018-07-20T11:34:13.754Z,10648.00
2018-07-20T11:35:13.751Z,10676.00
2018-07-20T11:36:13.733Z,10708.00
2018-07-20T11:37:13.723Z,10720.00
2018-07-20T11:38:13.713Z,10732.00
2018-07-20T11:39:13.704Z,10872.00
2018-07-20T11:40:13.709Z,11000.00
2018-07-20T11:41:13.685Z,11052.00
2018-07-20T11:42:13.678Z,10992.00
2018-07-20T11:43:13.667Z,10884.00
2018-07-20T11:44:13.657Z,10980.00
2018-07-20T11:45:13.649Z,11100.00
2018-07-20T11:46:13.649Z,11220.00
2018-07-20T11:47:13.630Z,11328.00
2018-07-20T11:48:13.621Z,11392.00
2018-07-20T11:49:13.611Z,11456.00
2018-07-20T11:50:13.604Z,11484.00
2018-07-20T11:51:13.603Z,11520.00
2018-07-20T11:52:13.585Z,11548.00
2018-07-20T11:53:13.576Z,11588.00
2018-07-20T11:54:13.566Z,11652.00
2018-07-20T11:55:13.558Z,11716.00
2018-07-20T11:56:13.549Z,11780.00
2018-07-20T11:57:13.551Z,11840.00
2018-07-20T11:58:13.529Z,11940.00
2018-07-20T11:59:13.522Z,12092.00
2018-07-20T12:00:13.513Z,12280.00
2018-07-20T12:01:13.506Z,12300.00
2018-07-20T12:02:13.509Z,12348.00
2018-07-20T12:03:13.489Z,12336.00
2018-07-20T12:04:13.476Z,12680.00
2018-07-20T12:05:13.469Z,13376.00
2018-07-20T12:06:13.459Z,13588.00
2018-07-20T12:07:13.462Z,14056.00
2018-07-20T12:08:13.442Z,14652.00
2018-07-20T12:09:13.435Z,14884.00
2018-07-20T12:10:13.424Z,14964.00
2018-07-20T12:11:13.415Z,15156.00
2018-07-20T12:12:13.417Z,15392.00
2018-07-20T12:13:13.399Z,15644.00
2018-07-20T12:14:13.391Z,15836.00
2018-07-20T12:15:13.381Z,15968.00
2018-07-20T12:16:13.374Z,16004.00
2018-07-20T12:17:13.374Z,16052.00
2018-07-20T12:18:13.354Z,16252.00
2018-07-20T12:19:13.349Z,16576.00
2018-07-20T12:20:13.340Z,16888.00
2018-07-20T12:21:13.330Z,16996.00
2018-07-20T12:22:13.331Z,17232.00